Terminal Aerodrome Forecast
Issued by NWS

Current Version | Previous Version | Graphics & Text | Print | Product List | Glossary On
Versions: 1 2 3 4 5 6 7 8 9 10 11 12 13 14 15 16 17 18 19 20 21 22 23 24 25
000
FTUS41 KPBZ 281500 AAA
TAFHLG
TAF AMD
KHLG 281508Z 2815/2912 27012KT P6SM -SHRA OVC020
     FM281800 30012KT P6SM -SHRA OVC025
     FM282100 31010KT P6SM BKN035=

USA.gov is the U.S. government's official web portal to all federal, state and local government web resources and services.